createdAt,value
2023-05-11T00:00:53.552Z,9.65
2023-05-11T00:01:55.692Z,9.30
2023-05-11T00:02:57.988Z,9.93
2023-05-11T00:04:00.680Z,10.48
2023-05-11T00:05:02.933Z,9.05
2023-05-11T00:06:05.131Z,9.60
2023-05-11T00:07:07.272Z,10.00
2023-05-11T00:08:09.483Z,10.60
2023-05-11T00:09:12.415Z,9.02
2023-05-11T00:10:14.733Z,9.70
2023-05-11T00:11:18.530Z,10.02
2023-05-11T00:12:20.792Z,9.85
2023-05-11T00:13:22.986Z,9.32
2023-05-11T00:14:25.242Z,9.38
2023-05-11T00:15:27.410Z,8.18
2023-05-11T00:16:29.683Z,9.35
2023-05-11T00:17:31.948Z,11.13
2023-05-11T00:18:34.163Z,9.00
2023-05-11T00:19:36.309Z,10.20
2023-05-11T00:20:38.558Z,10.77
2023-05-11T00:21:40.945Z,10.38
2023-05-11T00:22:44.745Z,9.77
2023-05-11T00:23:47.165Z,9.93
2023-05-11T00:24:49.279Z,9.30
2023-05-11T00:25:51.436Z,9.20
2023-05-11T00:26:53.655Z,10.82
2023-05-11T00:27:55.813Z,10.32
2023-05-11T00:28:58.045Z,9.88
2023-05-11T00:30:00.345Z,7.85
2023-05-11T00:31:02.675Z,10.02
2023-05-11T00:32:05.045Z,9.43
2023-05-11T00:33:07.442Z,9.52
2023-05-11T00:34:09.619Z,9.20
2023-05-11T00:35:12.478Z,9.40
2023-05-11T00:36:15.511Z,9.60
2023-05-11T00:37:17.650Z,10.15
2023-05-11T00:38:20.134Z,10.40
2023-05-11T00:39:22.281Z,9.65
2023-05-11T00:40:24.944Z,9.50
2023-05-11T00:41:27.085Z,10.07
2023-05-11T00:42:29.244Z,8.98
2023-05-11T00:43:31.371Z,10.52
2023-05-11T00:44:33.800Z,8.88
2023-05-11T00:45:36.329Z,9.70
2023-05-11T00:46:39.436Z,9.80
2023-05-11T00:47:41.833Z,9.57
2023-05-11T00:48:44.313Z,10.02
2023-05-11T00:49:46.914Z,9.30
2023-05-11T00:50:49.459Z,8.48
2023-05-11T00:51:51.805Z,9.38
2023-05-11T00:52:55.824Z,9.90
2023-05-11T00:53:58.862Z,8.55
2023-05-11T00:55:01.314Z,8.93
2023-05-11T00:56:03.975Z,8.00
2023-05-11T00:57:06.229Z,9.02
2023-05-11T00:58:08.408Z,8.95
2023-05-11T00:59:11.414Z,9.75
2023-05-11T01:00:14.218Z,9.80
2023-05-11T01:01:18.634Z,9.23
2023-05-11T01:02:21.034Z,8.70
2023-05-11T01:03:23.742Z,9.27
2023-05-11T01:04:26.348Z,9.43
2023-05-11T01:05:44.240Z,8.93
2023-05-11T01:07:11.336Z,9.02
2023-05-11T01:08:20.255Z,8.55
2023-05-11T01:09:54.387Z,10.00
2023-05-11T01:11:11.323Z,9.35
2023-05-11T01:12:26.761Z,9.32
2023-05-11T01:13:37.836Z,8.43
2023-05-11T01:14:49.093Z,9.75
2023-05-11T01:15:53.812Z,9.10
2023-05-11T01:17:05.130Z,9.10
2023-05-11T01:18:19.952Z,9.43
2023-05-11T01:19:28.406Z,9.05
2023-05-11T01:20:30.862Z,9.68
2023-05-11T01:21:34.668Z,10.23
2023-05-11T01:22:45.602Z,8.88
2023-05-11T01:24:20.079Z,11.48
2023-05-11T01:25:32.258Z,10.65
2023-05-11T01:26:44.126Z,10.48
2023-05-11T01:29:12.943Z,10.13
2023-05-11T01:30:24.058Z,11.15
2023-05-11T01:31:31.482Z,11.10
2023-05-11T01:32:36.962Z,10.50
2023-05-11T01:33:44.428Z,9.98
2023-05-11T01:34:48.861Z,9.65
2023-05-11T01:35:54.963Z,10.65
2023-05-11T01:37:09.993Z,10.80
2023-05-11T01:38:14.636Z,9.80
2023-05-11T01:39:24.862Z,10.75
2023-05-11T01:40:31.462Z,10.33
2023-05-11T01:41:36.038Z,9.35
2023-05-11T01:43:07.416Z,10.18
2023-05-11T01:44:18.323Z,10.52
2023-05-11T01:46:26.390Z,10.20
2023-05-11T01:47:30.361Z,12.25
2023-05-11T01:48:38.089Z,12.88
2023-05-11T01:49:42.391Z,10.02
2023-05-11T01:50:46.078Z,12.77
2023-05-11T01:51:51.430Z,12.45
2023-05-11T01:52:55.033Z,12.82
2023-05-11T01:54:00.133Z,12.20
2023-05-11T01:55:04.696Z,12.85
2023-05-11T01:56:07.669Z,12.50
2023-05-11T01:57:12.939Z,11.48
2023-05-11T01:58:18.136Z,12.10
2023-05-11T01:59:20.636Z,13.32
2023-05-11T02:00:23.740Z,11.82
2023-05-11T02:01:30.623Z,12.98
2023-05-11T02:02:34.239Z,12.57
2023-05-11T02:03:38.301Z,14.38
2023-05-11T02:04:42.487Z,12.20
2023-05-11T02:05:47.399Z,12.82
2023-05-11T02:06:52.474Z,11.13
2023-05-11T02:07:58.216Z,12.57
2023-05-11T02:09:01.798Z,10.40
2023-05-11T02:10:04.555Z,13.20
2023-05-11T02:11:10.441Z,12.27
2023-05-11T02:12:16.105Z,13.23
2023-05-11T02:13:19.879Z,13.90
2023-05-11T02:14:24.629Z,13.75
2023-05-11T02:15:28.393Z,12.75
2023-05-11T02:16:32.539Z,12.35
2023-05-11T02:17:35.485Z,11.68
2023-05-11T02:18:41.004Z,12.30
2023-05-11T02:19:45.018Z,11.90
2023-05-11T02:20:48.147Z,12.73
2023-05-11T02:21:52.790Z,12.55
2023-05-11T02:22:56.655Z,13.07
2023-05-11T02:24:03.321Z,12.20
2023-05-11T02:25:07.867Z,12.13
2023-05-11T02:26:12.330Z,11.23
2023-05-11T02:27:14.473Z,11.27
2023-05-11T02:28:16.692Z,11.70
2023-05-11T02:29:19.016Z,11.15
2023-05-11T02:30:21.343Z,10.45
2023-05-11T02:31:29.821Z,12.25
2023-05-11T02:32:36.286Z,10.68
2023-05-11T02:33:44.830Z,11.55
2023-05-11T02:34:51.854Z,11.25
2023-05-11T02:35:56.463Z,10.10
2023-05-11T02:37:09.781Z,10.60
2023-05-11T02:38:14.307Z,10.82
2023-05-11T02:39:21.903Z,10.43
2023-05-11T02:40:32.053Z,9.75
2023-05-11T02:41:39.641Z,10.95
2023-05-11T02:42:44.217Z,9.80
2023-05-11T02:43:51.212Z,9.07
2023-05-11T02:44:58.624Z,9.45
2023-05-11T02:46:05.011Z,10.52
2023-05-11T02:47:12.803Z,8.27
2023-05-11T02:48:25.018Z,9.43
2023-05-11T02:49:30.981Z,7.50
2023-05-11T02:50:37.382Z,9.30
2023-05-11T02:51:44.796Z,8.57
2023-05-11T02:52:49.479Z,7.47
2023-05-11T02:53:54.542Z,8.57
2023-05-11T02:54:57.747Z,7.97
2023-05-11T02:56:00.906Z,8.88
2023-05-11T02:57:04.026Z,8.18
2023-05-11T02:58:06.407Z,9.10
2023-05-11T02:59:09.202Z,8.73
2023-05-11T03:00:12.506Z,7.13
2023-05-11T03:01:15.579Z,9.13
2023-05-11T03:02:18.096Z,7.20
2023-05-11T03:03:20.458Z,7.28
2023-05-11T03:04:22.975Z,7.53
2023-05-11T03:05:25.331Z,7.75
2023-05-11T03:06:27.610Z,6.97
2023-05-11T03:07:29.878Z,7.43
2023-05-11T03:08:32.150Z,8.38
2023-05-11T03:09:35.066Z,8.32
2023-05-11T03:10:37.874Z,9.13
2023-05-11T03:11:40.830Z,7.88
2023-05-11T03:12:44.032Z,7.22
2023-05-11T03:13:46.326Z,6.93
2023-05-11T03:14:52.305Z,6.93
2023-05-11T03:15:55.355Z,7.10
2023-05-11T03:16:58.666Z,7.03
2023-05-11T03:18:01.838Z,7.05
2023-05-11T03:19:07.179Z,6.88
2023-05-11T03:20:11.107Z,6.97
2023-05-11T03:21:18.357Z,8.20
2023-05-11T03:22:22.365Z,7.25
2023-05-11T03:23:24.810Z,6.40
2023-05-11T03:24:27.917Z,6.35
2023-05-11T03:25:30.645Z,6.40
2023-05-11T03:26:34.231Z,6.90
2023-05-11T03:27:37.571Z,6.35
2023-05-11T03:28:43.923Z,6.57
2023-05-11T03:29:48.887Z,5.85
2023-05-11T03:30:53.349Z,6.43
2023-05-11T03:31:55.902Z,5.70
2023-05-11T03:32:59.133Z,6.50
2023-05-11T03:34:01.534Z,7.00
2023-05-11T03:35:07.143Z,5.95
2023-05-11T03:36:10.964Z,6.47
2023-05-11T03:37:14.816Z,6.85
2023-05-11T03:38:19.542Z,6.18
2023-05-11T03:39:23.284Z,6.00
2023-05-11T03:40:27.895Z,5.15
2023-05-11T03:41:32.374Z,6.35
2023-05-11T03:42:37.945Z,7.22
2023-05-11T03:43:40.961Z,5.32
2023-05-11T03:44:47.353Z,6.13
2023-05-11T03:45:53.187Z,5.93
2023-05-11T03:46:58.392Z,5.20
2023-05-11T03:48:01.875Z,6.53
2023-05-11T03:49:06.225Z,6.22
2023-05-11T03:50:09.558Z,5.40
2023-05-11T03:51:12.129Z,5.68
2023-05-11T03:52:15.009Z,7.18
2023-05-11T03:53:17.576Z,6.10
2023-05-11T03:54:19.805Z,5.47
2023-05-11T03:55:22.989Z,7.15
2023-05-11T03:56:25.139Z,6.35
2023-05-11T03:57:27.532Z,5.95
2023-05-11T03:58:31.344Z,6.53
2023-05-11T03:59:33.597Z,5.47
2023-05-11T04:00:42.240Z,6.50
2023-05-11T04:01:44.820Z,6.88
2023-05-11T04:02:47.252Z,5.88
2023-05-11T04:03:51.821Z,5.63
2023-05-11T04:04:54.354Z,5.50
2023-05-11T04:05:56.660Z,6.90
2023-05-11T04:06:59.626Z,5.55
2023-05-11T04:08:02.891Z,6.68
2023-05-11T04:09:05.115Z,5.82
2023-05-11T04:10:07.946Z,5.65
2023-05-11T04:11:10.661Z,6.38
2023-05-11T04:12:12.887Z,4.72
2023-05-11T04:13:15.025Z,5.07
2023-05-11T04:14:17.691Z,5.35
2023-05-11T04:15:19.879Z,3.90
2023-05-11T04:16:23.397Z,4.88
2023-05-11T04:17:25.659Z,4.90
2023-05-11T04:18:27.900Z,4.60
2023-05-11T04:19:30.133Z,4.45
2023-05-11T04:20:32.443Z,4.63
2023-05-11T04:21:35.735Z,4.40
2023-05-11T04:22:38.632Z,4.38
2023-05-11T04:23:40.829Z,4.70
2023-05-11T04:24:43.053Z,4.90
2023-05-11T04:25:45.263Z,4.88
2023-05-11T04:26:47.419Z,4.20
2023-05-11T04:27:49.602Z,4.72
2023-05-11T04:28:51.726Z,4.65
2023-05-11T04:29:54.006Z,5.03
2023-05-11T04:30:57.501Z,5.22
2023-05-11T04:31:59.772Z,6.25
2023-05-11T04:33:03.670Z,5.63
2023-05-11T04:34:07.495Z,6.25
2023-05-11T04:35:11.355Z,6.15
2023-05-11T04:36:14.766Z,5.90
2023-05-11T04:37:16.919Z,6.43
2023-05-11T04:38:20.096Z,7.72
2023-05-11T04:39:22.347Z,5.47
2023-05-11T04:40:24.688Z,5.93
2023-05-11T04:41:28.424Z,7.03
2023-05-11T04:42:33.373Z,6.05
2023-05-11T04:43:37.830Z,5.82
2023-05-11T04:44:40.809Z,7.57
2023-05-11T04:45:48.410Z,6.53
2023-05-11T04:46:55.941Z,6.40
2023-05-11T04:47:58.218Z,7.55
2023-05-11T04:49:01.249Z,6.18
2023-05-11T04:50:06.043Z,7.68
2023-05-11T04:51:10.318Z,7.22
2023-05-11T04:52:18.048Z,6.72
2023-05-11T04:53:23.693Z,7.90
2023-05-11T04:54:25.907Z,6.68
2023-05-11T04:55:28.080Z,6.13
2023-05-11T04:56:31.264Z,6.30
2023-05-11T04:57:34.799Z,6.13
2023-05-11T04:58:37.912Z,5.05
2023-05-11T04:59:40.128Z,4.72
2023-05-11T05:00:42.403Z,5.32
2023-05-11T05:01:44.691Z,5.93
2023-05-11T05:02:46.929Z,5.22
2023-05-11T05:03:49.921Z,5.82
2023-05-11T05:04:53.106Z,5.40
2023-05-11T05:05:56.071Z,5.13
2023-05-11T05:06:58.675Z,4.97
2023-05-11T05:08:01.188Z,5.07
2023-05-11T05:09:03.427Z,5.22
2023-05-11T05:10:08.844Z,5.13
2023-05-11T05:11:11.183Z,4.93
2023-05-11T05:12:13.317Z,4.55
2023-05-11T05:13:18.282Z,5.47
2023-05-11T05:14:20.504Z,6.47
2023-05-11T05:15:22.720Z,4.40
2023-05-11T05:16:24.923Z,4.18
2023-05-11T05:17:27.185Z,4.30
2023-05-11T05:18:29.411Z,4.32
2023-05-11T05:19:31.781Z,4.57
2023-05-11T05:20:35.134Z,4.50
2023-05-11T05:21:37.730Z,5.00
2023-05-11T05:22:39.893Z,4.78
2023-05-11T05:23:42.016Z,6.15
2023-05-11T05:24:44.135Z,4.75
2023-05-11T05:25:46.573Z,4.25
2023-05-11T05:26:48.770Z,5.53
2023-05-11T05:27:51.602Z,4.55
2023-05-11T05:28:54.981Z,6.03
2023-05-11T05:29:57.202Z,5.55
2023-05-11T05:31:01.078Z,5.75
2023-05-11T05:32:03.720Z,5.28
2023-05-11T05:33:06.355Z,5.20
2023-05-11T05:34:10.809Z,5.25
2023-05-11T05:35:13.332Z,5.95
2023-05-11T05:36:17.676Z,5.60
2023-05-11T05:37:19.835Z,5.88
2023-05-11T05:38:22.437Z,5.38
2023-05-11T05:39:24.704Z,6.18
2023-05-11T05:40:27.208Z,6.97
2023-05-11T05:41:31.362Z,5.13
2023-05-11T05:42:33.640Z,6.57
2023-05-11T05:43:36.157Z,5.90
2023-05-11T05:44:38.711Z,5.15
2023-05-11T05:45:41.114Z,5.30
2023-05-11T05:46:43.948Z,5.07
2023-05-11T05:47:47.198Z,5.25
2023-05-11T05:48:49.532Z,6.30
2023-05-11T05:49:51.691Z,6.25
2023-05-11T05:50:53.990Z,5.82
2023-05-11T05:51:56.334Z,5.72
2023-05-11T05:52:58.811Z,5.22
2023-05-11T05:54:03.356Z,5.50
2023-05-11T05:55:06.497Z,4.95
2023-05-11T05:56:08.735Z,5.10
2023-05-11T05:57:11.894Z,5.13
2023-05-11T05:58:14.881Z,4.93
2023-05-11T05:59:18.969Z,7.20
2023-05-11T06:00:21.488Z,6.50
2023-05-11T06:01:31.691Z,7.63
2023-05-11T06:02:34.000Z,5.53
2023-05-11T06:03:36.440Z,6.20
2023-05-11T06:04:39.365Z,6.60
2023-05-11T06:05:41.530Z,5.78
2023-05-11T06:06:43.948Z,5.95
2023-05-11T06:07:54.308Z,6.25
2023-05-11T06:09:04.340Z,6.40
2023-05-11T06:10:06.745Z,5.95
2023-05-11T06:11:08.957Z,6.60
2023-05-11T06:12:11.520Z,4.90
2023-05-11T06:13:18.184Z,7.75
2023-05-11T06:14:22.373Z,6.07
2023-05-11T06:15:25.270Z,5.50
2023-05-11T06:16:33.547Z,6.18
2023-05-11T06:17:35.824Z,6.07
2023-05-11T06:18:38.147Z,6.43
2023-05-11T06:19:42.628Z,6.88
2023-05-11T06:20:45.368Z,6.30
2023-05-11T06:21:48.659Z,7.22
2023-05-11T06:22:51.164Z,7.05
2023-05-11T06:23:53.422Z,6.07
2023-05-11T06:24:55.640Z,6.15
2023-05-11T06:25:57.826Z,5.65
2023-05-11T06:27:01.692Z,6.35
2023-05-11T06:28:05.039Z,6.20
2023-05-11T06:29:08.129Z,6.95
2023-05-11T06:30:11.415Z,7.13
2023-05-11T06:31:14.015Z,6.35
2023-05-11T06:32:17.997Z,8.52
2023-05-11T06:33:20.546Z,6.22
2023-05-11T06:34:22.767Z,6.78
2023-05-11T06:35:25.496Z,7.55
2023-05-11T06:36:28.595Z,6.28
2023-05-11T06:37:31.237Z,6.68
2023-05-11T06:38:33.634Z,7.95
2023-05-11T06:39:37.713Z,6.93
2023-05-11T06:40:43.017Z,7.85
2023-05-11T06:41:45.353Z,7.07
2023-05-11T06:42:47.528Z,8.05
2023-05-11T06:43:49.666Z,8.52
2023-05-11T06:46:04.531Z,6.05
2023-05-11T06:47:08.638Z,8.07
2023-05-11T06:48:10.811Z,7.65
2023-05-11T06:49:13.162Z,6.03
2023-05-11T06:50:15.440Z,6.88
2023-05-11T06:51:17.791Z,6.88
2023-05-11T06:52:19.958Z,7.18
2023-05-11T06:53:22.352Z,7.75
2023-05-11T06:54:24.559Z,7.75
2023-05-11T06:55:27.842Z,7.85
2023-05-11T06:56:31.873Z,8.93
2023-05-11T06:57:34.025Z,7.32
2023-05-11T06:58:36.259Z,7.30
2023-05-11T06:59:38.437Z,7.95
2023-05-11T07:00:40.850Z,8.98
2023-05-11T07:01:43.496Z,7.78
2023-05-11T07:02:45.722Z,6.88
2023-05-11T07:03:49.750Z,6.95
2023-05-11T07:04:52.779Z,9.70
2023-05-11T07:05:55.149Z,7.68
2023-05-11T07:06:57.319Z,6.80
2023-05-11T07:07:59.458Z,7.22
2023-05-11T07:09:03.399Z,7.07
2023-05-11T07:10:06.729Z,7.30
2023-05-11T07:11:08.953Z,7.50
2023-05-11T07:12:11.154Z,6.82
2023-05-11T07:13:14.229Z,7.50
2023-05-11T07:14:16.382Z,8.35
2023-05-11T07:15:18.575Z,8.10
2023-05-11T07:16:20.860Z,7.10
2023-05-11T07:17:23.414Z,6.75
2023-05-11T07:18:25.790Z,7.22
2023-05-11T07:19:27.971Z,7.95
2023-05-11T07:20:30.300Z,7.10
2023-05-11T07:21:35.372Z,7.20
2023-05-11T07:22:37.549Z,6.30
2023-05-11T07:23:39.750Z,6.15
2023-05-11T07:24:42.256Z,8.10
2023-05-11T07:25:44.379Z,7.82
2023-05-11T07:26:46.552Z,6.47
2023-05-11T07:27:48.681Z,6.00
2023-05-11T07:28:50.916Z,7.40
2023-05-11T07:29:53.102Z,6.90
2023-05-11T07:30:55.378Z,6.75
2023-05-11T07:31:57.741Z,6.50
2023-05-11T07:33:00.001Z,6.20
2023-05-11T07:34:02.612Z,7.85
2023-05-11T07:35:05.557Z,6.88
2023-05-11T07:36:07.984Z,7.43
2023-05-11T07:37:10.247Z,6.60
2023-05-11T07:38:13.841Z,7.15
2023-05-11T07:39:17.066Z,6.43
2023-05-11T07:40:19.624Z,6.80
2023-05-11T07:41:26.088Z,7.88
2023-05-11T07:42:28.243Z,7.80
2023-05-11T07:43:30.434Z,7.32
2023-05-11T07:44:32.618Z,8.68
2023-05-11T07:47:13.838Z,7.70
2023-05-11T07:48:16.464Z,7.05
2023-05-11T07:49:22.985Z,7.28
2023-05-11T07:50:33.473Z,7.18
2023-05-11T07:51:35.750Z,7.15
2023-05-11T07:52:38.321Z,6.43
2023-05-11T07:53:40.497Z,7.15
2023-05-11T07:54:42.800Z,6.78
2023-05-11T07:55:44.983Z,7.93
2023-05-11T07:56:47.144Z,6.78
2023-05-11T07:57:49.382Z,5.95
2023-05-11T07:58:51.541Z,7.00
2023-05-11T07:59:53.726Z,6.78
2023-05-11T08:00:56.714Z,6.65
2023-05-11T08:01:59.440Z,7.60
2023-05-11T08:03:02.045Z,7.13
2023-05-11T08:04:04.403Z,6.88
2023-05-11T08:05:07.298Z,7.05
2023-05-11T08:06:09.663Z,8.45
2023-05-11T08:07:11.886Z,7.43
2023-05-11T08:08:14.055Z,7.15
2023-05-11T08:09:16.487Z,6.85
2023-05-11T08:10:18.696Z,7.68
2023-05-11T08:11:20.911Z,6.57
2023-05-11T08:12:23.096Z,8.20
2023-05-11T08:13:26.015Z,6.18
2023-05-11T08:14:28.526Z,7.25
2023-05-11T08:15:30.750Z,6.97
2023-05-11T08:16:33.343Z,7.07
2023-05-11T08:17:36.462Z,7.30
2023-05-11T08:18:38.794Z,6.60
2023-05-11T08:19:40.981Z,7.45
2023-05-11T08:20:43.173Z,7.43
2023-05-11T08:21:46.465Z,5.80
2023-05-11T08:22:48.848Z,6.93
2023-05-11T08:23:51.196Z,6.30
2023-05-11T08:24:53.414Z,7.75
2023-05-11T08:25:56.297Z,7.38
2023-05-11T08:26:58.982Z,6.93
2023-05-11T08:28:02.430Z,6.47
2023-05-11T08:29:04.908Z,8.55
2023-05-11T08:30:11.343Z,8.27
2023-05-11T08:31:14.397Z,7.80
2023-05-11T08:32:16.702Z,7.05
2023-05-11T08:33:36.047Z,8.43
2023-05-11T08:34:40.284Z,6.78
2023-05-11T08:35:43.051Z,8.00
2023-05-11T08:36:45.969Z,8.20
2023-05-11T08:37:48.380Z,7.40
2023-05-11T08:38:51.096Z,8.70
2023-05-11T08:39:54.654Z,7.75
2023-05-11T08:40:56.848Z,7.10
2023-05-11T08:42:02.682Z,6.90
2023-05-11T08:43:07.253Z,7.45
2023-05-11T08:44:10.699Z,7.28
2023-05-11T08:45:13.394Z,7.10
2023-05-11T08:46:22.381Z,8.55
2023-05-11T08:47:25.121Z,7.85
2023-05-11T08:48:28.024Z,7.72
2023-05-11T08:49:30.424Z,6.57
2023-05-11T08:50:33.373Z,7.35
2023-05-11T08:51:35.725Z,7.10
2023-05-11T08:52:38.245Z,7.97
2023-05-11T08:53:40.584Z,6.88
2023-05-11T08:54:43.098Z,7.75
2023-05-11T08:55:47.817Z,6.93
2023-05-11T08:56:51.713Z,7.28
2023-05-11T08:57:56.425Z,9.02
2023-05-11T08:58:58.968Z,7.00
2023-05-11T09:00:02.952Z,7.35
2023-05-11T09:01:06.744Z,6.80
2023-05-11T09:02:14.411Z,6.40
2023-05-11T09:03:19.898Z,7.38
2023-05-11T09:04:23.963Z,7.82
2023-05-11T09:05:28.022Z,7.15
2023-05-11T09:06:31.254Z,6.93
2023-05-11T09:07:37.332Z,7.80
2023-05-11T09:08:40.064Z,6.93
2023-05-11T09:09:42.368Z,6.57
2023-05-11T09:10:44.914Z,7.15
2023-05-11T09:11:47.580Z,6.50
2023-05-11T09:12:49.741Z,6.55
2023-05-11T09:13:52.431Z,5.55
2023-05-11T09:14:54.832Z,6.18
2023-05-11T09:15:57.487Z,5.65
2023-05-11T09:16:59.691Z,5.97
2023-05-11T09:18:02.810Z,7.03
2023-05-11T09:19:05.688Z,6.15
2023-05-11T09:20:09.464Z,5.82
2023-05-11T09:21:12.859Z,5.47
2023-05-11T09:22:15.094Z,4.95
2023-05-11T09:23:17.805Z,5.30
2023-05-11T09:24:20.979Z,5.97
2023-05-11T09:25:24.517Z,4.70
2023-05-11T09:26:29.364Z,5.18
2023-05-11T09:27:32.374Z,6.80
2023-05-11T09:28:36.094Z,4.72
2023-05-11T09:29:38.567Z,4.45
2023-05-11T09:30:40.767Z,4.32
2023-05-11T09:31:47.342Z,5.72
2023-05-11T09:32:54.487Z,4.90
2023-05-11T09:34:29.257Z,4.65
2023-05-11T09:35:34.006Z,3.90
2023-05-11T09:36:36.383Z,4.35
2023-05-11T09:37:39.180Z,4.10
2023-05-11T09:38:41.505Z,3.60
2023-05-11T09:39:59.208Z,4.57
2023-05-11T09:41:06.869Z,4.70
2023-05-11T09:42:17.404Z,3.85
2023-05-11T09:43:24.954Z,4.50
2023-05-11T09:44:31.679Z,3.75
2023-05-11T09:45:41.910Z,3.83
2023-05-11T09:46:45.714Z,3.60
2023-05-11T09:47:49.144Z,3.80
2023-05-11T09:49:00.057Z,3.42
2023-05-11T09:51:33.023Z,3.20
2023-05-11T09:52:43.576Z,3.78
2023-05-11T09:53:46.259Z,3.53
2023-05-11T09:54:51.762Z,4.20
2023-05-11T09:55:55.451Z,4.55
2023-05-11T09:57:00.200Z,4.72
2023-05-11T09:58:04.411Z,5.43
2023-05-11T09:59:06.576Z,4.57
2023-05-11T10:00:14.988Z,4.10
2023-05-11T10:01:19.124Z,5.13
2023-05-11T10:02:25.234Z,5.03
2023-05-11T10:03:27.682Z,4.43
2023-05-11T10:04:30.187Z,5.68
2023-05-11T10:05:36.712Z,4.93
2023-05-11T10:06:49.522Z,4.80
2023-05-11T10:08:00.189Z,5.32
2023-05-11T10:10:13.980Z,4.28
2023-05-11T10:11:16.312Z,3.88
2023-05-11T10:12:22.140Z,5.90
2023-05-11T10:13:24.865Z,4.80
2023-05-11T10:14:28.316Z,5.75
2023-05-11T10:15:33.309Z,4.50
2023-05-11T10:16:35.879Z,4.50
2023-05-11T10:17:38.290Z,4.13
2023-05-11T10:18:41.210Z,5.07
2023-05-11T10:19:43.548Z,4.50
2023-05-11T10:20:46.331Z,4.07
2023-05-11T10:21:49.464Z,4.90
2023-05-11T10:22:53.608Z,4.15
2023-05-11T10:23:57.482Z,5.65
2023-05-11T10:25:00.223Z,4.07
2023-05-11T10:26:04.971Z,4.28
2023-05-11T10:27:07.488Z,3.83
2023-05-11T10:28:10.671Z,5.05
2023-05-11T10:29:13.864Z,3.90
2023-05-11T10:30:16.280Z,4.45
2023-05-11T10:31:24.128Z,3.72
2023-05-11T10:32:27.698Z,5.45
2023-05-11T10:33:30.412Z,4.43
2023-05-11T10:34:33.868Z,3.55
2023-05-11T10:35:38.476Z,3.85
2023-05-11T10:36:40.689Z,3.60
2023-05-11T10:37:43.372Z,3.40
2023-05-11T10:38:45.632Z,3.88
2023-05-11T10:39:50.472Z,3.58
2023-05-11T10:41:02.310Z,3.70
2023-05-11T10:42:25.761Z,3.70
2023-05-11T10:43:47.529Z,3.83
2023-05-11T10:44:58.541Z,3.17
2023-05-11T10:46:10.582Z,4.28
2023-05-11T10:47:42.338Z,3.10
2023-05-11T10:49:11.890Z,3.92
2023-05-11T10:50:32.897Z,3.28
2023-05-11T10:52:06.457Z,3.50
2023-05-11T10:53:32.222Z,3.70
2023-05-11T10:55:16.824Z,3.42
2023-05-11T10:56:35.247Z,3.65
2023-05-11T10:58:00.042Z,2.90
2023-05-11T10:59:41.737Z,3.15
2023-05-11T11:01:02.109Z,3.80
2023-05-11T11:02:04.715Z,3.30
2023-05-11T11:03:14.441Z,3.42
2023-05-11T11:04:17.352Z,3.90
2023-05-11T11:05:36.369Z,3.42
2023-05-11T11:06:43.841Z,3.15
2023-05-11T11:08:00.290Z,3.67
2023-05-11T11:09:13.673Z,4.10
2023-05-11T11:10:30.710Z,3.75
2023-05-11T11:11:36.354Z,3.40
2023-05-11T11:12:38.713Z,4.13
2023-05-11T11:13:57.400Z,3.60
2023-05-11T11:15:07.013Z,3.47
2023-05-11T11:16:09.527Z,3.83
2023-05-11T11:17:24.310Z,3.92
2023-05-11T11:18:33.547Z,3.13
2023-05-11T11:19:36.559Z,3.30
2023-05-11T11:20:49.852Z,2.95
2023-05-11T11:21:52.052Z,2.78
2023-05-11T11:22:54.347Z,3.25
2023-05-11T11:23:56.680Z,2.72
2023-05-11T11:24:58.906Z,2.83
2023-05-11T11:26:02.946Z,2.85
2023-05-11T11:27:06.402Z,3.53
2023-05-11T11:28:08.922Z,3.35
2023-05-11T11:29:11.635Z,3.45
2023-05-11T11:30:17.677Z,3.95
2023-05-11T11:31:28.099Z,4.90
2023-05-11T11:32:30.458Z,3.55
2023-05-11T11:33:34.078Z,3.95
2023-05-11T11:34:36.568Z,4.57
2023-05-11T11:35:42.166Z,4.80
2023-05-11T11:37:05.809Z,4.80
2023-05-11T11:38:09.068Z,4.72
2023-05-11T11:39:11.488Z,3.97
2023-05-11T11:40:15.161Z,4.57
2023-05-11T11:41:33.134Z,4.63
2023-05-11T11:42:37.968Z,4.10
2023-05-11T11:43:45.641Z,3.63
2023-05-11T11:44:48.534Z,5.47
2023-05-11T11:45:56.162Z,5.13
2023-05-11T11:47:19.793Z,4.22
2023-05-11T11:48:36.319Z,6.13
2023-05-11T11:49:40.161Z,5.22
2023-05-11T11:50:44.448Z,4.32
2023-05-11T11:51:46.648Z,3.90
2023-05-11T11:52:48.790Z,4.07
2023-05-11T11:53:51.178Z,4.15
2023-05-11T11:54:54.356Z,5.25
2023-05-11T11:55:56.706Z,4.18
2023-05-11T11:57:00.210Z,4.90
2023-05-11T11:58:02.393Z,4.15
2023-05-11T11:59:10.025Z,3.88
2023-05-11T12:00:14.170Z,4.00
2023-05-11T12:01:18.809Z,4.00
2023-05-11T12:02:22.611Z,4.95
2023-05-11T12:03:25.755Z,5.45
2023-05-11T12:04:31.464Z,5.00
2023-05-11T12:05:37.329Z,4.80
2023-05-11T12:06:41.194Z,3.40
2023-05-11T12:07:46.042Z,3.45
2023-05-11T12:08:48.532Z,3.90
2023-05-11T12:09:52.875Z,3.75
2023-05-11T12:10:55.403Z,3.45
2023-05-11T12:11:58.653Z,3.60
2023-05-11T12:13:01.357Z,4.03
2023-05-11T12:14:03.560Z,3.88
2023-05-11T12:15:07.628Z,4.18
2023-05-11T12:16:15.004Z,4.05
2023-05-11T12:17:28.201Z,3.72
2023-05-11T12:18:30.625Z,4.90
2023-05-11T12:19:32.854Z,4.88
2023-05-11T12:20:35.309Z,5.32
2023-05-11T12:21:37.458Z,5.38
2023-05-11T12:22:39.798Z,5.35
2023-05-11T12:23:55.175Z,5.05
2023-05-11T12:25:00.142Z,5.22
2023-05-11T12:26:06.812Z,4.75
2023-05-11T12:27:09.449Z,5.57
2023-05-11T12:28:12.772Z,6.55
2023-05-11T12:29:15.899Z,5.68
2023-05-11T12:30:23.185Z,5.53
2023-05-11T12:31:27.208Z,5.47
2023-05-11T12:32:31.498Z,5.30
2023-05-11T12:33:33.763Z,4.88
2023-05-11T12:34:35.983Z,5.88
2023-05-11T12:35:40.342Z,5.03
2023-05-11T12:36:45.294Z,5.47
2023-05-11T12:37:48.139Z,5.22
2023-05-11T12:38:50.980Z,5.32
2023-05-11T12:39:56.828Z,5.57
2023-05-11T12:40:59.809Z,5.53
2023-05-11T12:42:01.986Z,5.43
2023-05-11T12:43:04.112Z,6.63
2023-05-11T12:44:06.318Z,5.38
2023-05-11T12:45:09.275Z,5.95
2023-05-11T12:46:11.663Z,6.35
2023-05-11T12:47:14.832Z,6.32
2023-05-11T12:48:17.064Z,5.43
2023-05-11T12:50:25.961Z,5.90
2023-05-11T12:51:48.517Z,5.68
2023-05-11T12:52:50.935Z,5.95
2023-05-11T12:53:53.268Z,5.13
2023-05-11T12:55:00.253Z,5.80
2023-05-11T12:56:04.632Z,6.05
2023-05-11T12:57:22.315Z,5.45
2023-05-11T12:58:24.564Z,4.97
2023-05-11T12:59:37.692Z,5.70
2023-05-11T13:00:54.315Z,6.15
2023-05-11T13:02:18.038Z,5.88
2023-05-11T13:03:30.553Z,6.35
2023-05-11T13:04:33.027Z,5.72
2023-05-11T13:05:35.945Z,5.95
2023-05-11T13:06:38.289Z,5.70
2023-05-11T13:07:40.587Z,5.30
2023-05-11T13:08:46.980Z,5.68
2023-05-11T13:10:00.805Z,5.63
2023-05-11T13:11:25.668Z,5.45
2023-05-11T13:12:32.053Z,6.18
2023-05-11T13:13:35.682Z,5.55
2023-05-11T13:14:38.998Z,6.65
2023-05-11T13:15:51.668Z,7.30
2023-05-11T13:16:54.183Z,6.13
2023-05-11T13:18:03.468Z,6.13
2023-05-11T13:19:10.112Z,7.30
2023-05-11T13:20:29.728Z,6.68
2023-05-11T13:21:33.566Z,5.35
2023-05-11T13:22:36.150Z,5.85
2023-05-11T13:23:38.598Z,5.60
2023-05-11T13:24:41.291Z,5.93
2023-05-11T13:25:46.544Z,5.32
2023-05-11T13:26:48.898Z,5.93
2023-05-11T13:27:51.636Z,5.53
2023-05-11T13:29:08.724Z,6.00
2023-05-11T13:30:13.417Z,6.10
2023-05-11T13:31:16.064Z,5.97
2023-05-11T13:32:18.533Z,6.30
2023-05-11T13:33:20.983Z,6.47
2023-05-11T13:34:25.609Z,6.40
2023-05-11T13:35:27.880Z,6.53
2023-05-11T13:36:31.130Z,5.93
2023-05-11T13:37:34.287Z,5.95
2023-05-11T13:38:36.526Z,6.05
2023-05-11T13:39:38.842Z,6.82
2023-05-11T13:40:41.399Z,6.00
2023-05-11T13:41:43.924Z,5.70
2023-05-11T13:42:48.875Z,5.47
2023-05-11T13:43:51.328Z,5.18
2023-05-11T13:44:53.558Z,5.13
2023-05-11T13:45:56.046Z,4.53
2023-05-11T13:46:58.568Z,4.40
2023-05-11T13:48:01.055Z,4.50
2023-05-11T13:49:03.801Z,4.47
2023-05-11T13:50:07.151Z,4.00
2023-05-11T13:51:09.339Z,4.05
2023-05-11T13:52:11.574Z,3.90
2023-05-11T13:53:13.984Z,4.10
2023-05-11T13:54:16.222Z,4.25
2023-05-11T13:55:19.121Z,4.75
2023-05-11T13:56:22.153Z,4.63
2023-05-11T13:57:24.486Z,4.70
2023-05-11T13:58:26.758Z,4.60
2023-05-11T13:59:29.017Z,4.10
2023-05-11T14:00:31.179Z,4.20
2023-05-11T14:01:33.587Z,4.18
2023-05-11T14:02:36.118Z,4.63
2023-05-11T14:03:39.569Z,4.43
2023-05-11T14:04:41.845Z,4.30
2023-05-11T14:05:43.993Z,4.22
2023-05-11T14:06:46.177Z,4.20
2023-05-11T14:07:49.217Z,4.78
2023-05-11T14:08:52.535Z,4.10
2023-05-11T14:09:54.849Z,4.80
2023-05-11T14:10:57.108Z,4.32
2023-05-11T14:12:00.292Z,4.78
2023-05-11T14:13:02.682Z,3.92
2023-05-11T14:14:04.901Z,4.47
2023-05-11T14:15:07.720Z,4.40
2023-05-11T14:16:10.098Z,4.93
2023-05-11T14:17:13.666Z,3.88
2023-05-11T14:18:16.081Z,4.15
2023-05-11T14:19:18.478Z,4.30
2023-05-11T14:20:21.226Z,3.85
2023-05-11T14:21:23.518Z,4.53
2023-05-11T14:22:25.802Z,4.72
2023-05-11T14:23:28.183Z,5.18
2023-05-11T14:24:30.609Z,4.03
2023-05-11T14:25:32.890Z,4.22
2023-05-11T14:26:35.208Z,4.50
2023-05-11T14:27:37.633Z,4.15